createdAt,value
2017-11-16T00:01:58.240Z,45.90
2017-11-16T00:04:25.794Z,43.97
2017-11-16T00:06:53.322Z,44.80
2017-11-16T00:09:21.090Z,44.13
2017-11-16T00:11:48.682Z,46.28
2017-11-16T00:14:16.220Z,42.62
2017-11-16T00:16:43.767Z,43.83
2017-11-16T00:19:11.278Z,49.35
2017-11-16T00:21:38.840Z,44.90
2017-11-16T00:24:07.128Z,43.47
2017-11-16T00:26:34.653Z,40.90
2017-11-16T00:29:02.180Z,38.30
2017-11-16T00:31:29.707Z,37.40
2017-11-16T00:33:57.226Z,43.33
2017-11-16T00:36:24.765Z,44.65
2017-11-16T00:38:52.291Z,43.05
2017-11-16T00:41:19.894Z,44.97
2017-11-16T00:43:47.425Z,40.05
2017-11-16T00:46:14.944Z,43.87
2017-11-16T00:48:42.497Z,41.08
2017-11-16T00:51:10.013Z,42.28
2017-11-16T00:53:37.565Z,44.03
2017-11-16T00:56:05.110Z,44.63
2017-11-16T00:58:32.639Z,46.92
2017-11-16T01:01:00.159Z,51.47
2017-11-16T01:03:27.699Z,45.28
2017-11-16T01:05:55.211Z,45.50
2017-11-16T01:08:22.742Z,50.03
2017-11-16T01:10:50.276Z,49.15
2017-11-16T01:13:17.840Z,47.27
2017-11-16T01:15:45.360Z,50.12
2017-11-16T01:18:13.653Z,41.20
2017-11-16T01:20:41.968Z,50.55
2017-11-16T01:23:09.530Z,41.65
2017-11-16T01:25:37.066Z,45.58
2017-11-16T01:28:04.612Z,47.55
2017-11-16T01:30:32.927Z,46.05
2017-11-16T01:33:00.468Z,46.37
2017-11-16T01:35:28.024Z,42.27
2017-11-16T01:37:55.581Z,45.10
2017-11-16T01:40:23.094Z,41.90
2017-11-16T01:42:50.648Z,45.38
2017-11-16T01:45:18.172Z,43.67
2017-11-16T01:47:45.711Z,44.42
2017-11-16T01:50:13.296Z,43.97
2017-11-16T01:52:40.805Z,43.28
2017-11-16T01:55:08.336Z,45.97
2017-11-16T01:57:35.852Z,43.58
2017-11-16T02:00:03.411Z,42.20
2017-11-16T02:02:39.708Z,40.95
2017-11-16T02:05:07.230Z,43.75
2017-11-16T02:07:36.432Z,43.00
2017-11-16T02:10:04.574Z,42.45
2017-11-16T02:12:32.104Z,42.70
2017-11-16T02:14:59.629Z,43.08
2017-11-16T02:17:27.190Z,43.20
2017-11-16T02:19:54.714Z,43.65
2017-11-16T02:22:22.301Z,40.53
2017-11-16T02:24:50.648Z,44.38
2017-11-16T02:27:18.169Z,42.33
2017-11-16T02:29:45.713Z,42.78
2017-11-16T02:32:13.314Z,42.07
2017-11-16T02:34:40.841Z,42.72
2017-11-16T02:37:08.357Z,45.83
2017-11-16T02:39:35.912Z,46.40
2017-11-16T02:42:03.507Z,41.10
2017-11-16T02:44:31.041Z,44.42
2017-11-16T02:46:59.386Z,44.90
2017-11-16T02:49:26.913Z,39.40
2017-11-16T02:51:54.524Z,43.97
2017-11-16T02:54:22.084Z,40.83
2017-11-16T02:56:49.636Z,45.75
2017-11-16T02:59:17.165Z,40.97
2017-11-16T03:01:44.685Z,42.53
2017-11-16T03:04:13.181Z,41.50
2017-11-16T03:06:41.019Z,44.13
2017-11-16T03:09:08.613Z,42.83
2017-11-16T03:11:36.149Z,39.08
2017-11-16T03:14:04.433Z,39.87
2017-11-16T03:16:32.816Z,38.83
2017-11-16T03:19:01.144Z,40.35
2017-11-16T03:21:28.691Z,43.17
2017-11-16T03:23:56.212Z,45.67
2017-11-16T03:26:24.515Z,45.83
2017-11-16T03:28:52.956Z,42.83
2017-11-16T03:31:20.475Z,46.78
2017-11-16T03:33:47.999Z,45.42
2017-11-16T03:36:15.520Z,47.50
2017-11-16T03:38:43.044Z,43.35
2017-11-16T03:41:10.564Z,45.75
2017-11-16T03:43:38.862Z,49.08
2017-11-16T03:46:06.473Z,44.10
2017-11-16T03:48:33.991Z,45.00
2017-11-16T03:51:01.516Z,44.13
2017-11-16T03:53:29.812Z,45.88
2017-11-16T03:55:57.375Z,41.92
2017-11-16T03:58:24.912Z,43.63
2017-11-16T04:00:52.435Z,47.62
2017-11-16T04:03:20.000Z,49.55
2017-11-16T04:05:47.511Z,48.20
2017-11-16T04:08:15.039Z,46.35
2017-11-16T04:10:42.561Z,48.22
2017-11-16T04:13:10.123Z,54.05
2017-11-16T04:15:37.666Z,54.15
2017-11-16T04:18:05.278Z,58.00
2017-11-16T04:20:32.800Z,56.42
2017-11-16T04:23:00.359Z,53.65
2017-11-16T04:25:27.897Z,50.75
2017-11-16T04:27:55.414Z,48.58
2017-11-16T04:30:22.953Z,53.80
2017-11-16T04:32:50.491Z,46.45
2017-11-16T04:35:18.022Z,55.28
2017-11-16T04:37:46.316Z,56.28
2017-11-16T04:40:13.855Z,51.65
2017-11-16T04:42:42.141Z,61.83
2017-11-16T04:45:09.670Z,59.30
2017-11-16T04:47:37.221Z,58.17
2017-11-16T04:50:04.747Z,58.20
2017-11-16T04:52:32.292Z,50.88
2017-11-16T04:55:00.610Z,54.13
2017-11-16T04:57:28.144Z,56.97
2017-11-16T04:59:55.645Z,62.85
2017-11-16T05:02:23.167Z,59.78
2017-11-16T05:04:50.685Z,63.83
2017-11-16T05:07:19.009Z,61.80
2017-11-16T05:09:46.524Z,62.55
2017-11-16T05:12:14.072Z,59.75
2017-11-16T05:14:42.351Z,60.35
2017-11-16T05:17:10.663Z,60.40
2017-11-16T05:19:38.245Z,63.10
2017-11-16T05:22:05.769Z,64.00
2017-11-16T05:24:33.313Z,57.42
2017-11-16T05:27:01.584Z,72.50
2017-11-16T05:29:29.865Z,69.20
2017-11-16T05:31:58.157Z,66.40
2017-11-16T05:34:26.446Z,79.25
2017-11-16T05:36:53.994Z,80.32
2017-11-16T05:39:22.323Z,77.62
2017-11-16T05:41:49.847Z,71.78
2017-11-16T05:44:17.400Z,67.95
2017-11-16T05:46:44.929Z,66.60
2017-11-16T05:49:13.246Z,65.03
2017-11-16T05:51:40.757Z,61.30
2017-11-16T05:54:08.280Z,66.53
2017-11-16T05:56:35.820Z,54.00
2017-11-16T05:59:03.372Z,56.67
2017-11-16T06:01:30.949Z,69.25
2017-11-16T06:03:58.676Z,77.62
2017-11-16T06:06:26.971Z,76.35
2017-11-16T06:08:54.530Z,65.05
2017-11-16T06:11:23.748Z,66.22
2017-11-16T06:13:51.269Z,70.30
2017-11-16T06:16:19.575Z,57.58
2017-11-16T06:18:47.117Z,57.50
2017-11-16T06:21:15.445Z,59.25
2017-11-16T06:23:42.965Z,64.18
2017-11-16T06:26:10.489Z,60.28
2017-11-16T06:28:38.021Z,63.80
2017-11-16T06:31:05.775Z,50.40
2017-11-16T06:33:33.365Z,49.95
2017-11-16T06:36:00.921Z,65.25
2017-11-16T06:38:28.466Z,56.25
2017-11-16T06:40:56.080Z,49.78
2017-11-16T06:43:24.378Z,49.05
2017-11-16T06:45:51.897Z,42.88
2017-11-16T06:48:19.452Z,45.40
2017-11-16T06:50:47.585Z,46.40
2017-11-16T06:53:15.107Z,40.25
2017-11-16T06:55:43.391Z,44.17
2017-11-16T06:58:11.709Z,45.67
2017-11-16T07:00:39.216Z,44.65
2017-11-16T07:03:07.505Z,45.03
2017-11-16T07:05:35.063Z,45.00
2017-11-16T07:08:03.349Z,48.78
2017-11-16T07:10:30.959Z,51.08
2017-11-16T07:12:58.476Z,46.85
2017-11-16T07:15:26.010Z,39.22
2017-11-16T07:17:54.304Z,41.80
2017-11-16T07:20:21.823Z,41.73
2017-11-16T07:22:49.355Z,43.05
2017-11-16T07:25:16.873Z,42.55
2017-11-16T07:27:45.192Z,47.60
2017-11-16T07:30:12.721Z,44.15
2017-11-16T07:32:40.236Z,49.22
2017-11-16T07:35:07.781Z,47.92
2017-11-16T07:37:35.337Z,49.15
2017-11-16T07:40:02.902Z,47.62
2017-11-16T07:42:30.445Z,48.35
2017-11-16T07:44:57.989Z,55.90
2017-11-16T07:47:25.568Z,63.28
2017-11-16T07:49:53.089Z,69.80
2017-11-16T07:52:21.394Z,62.72
2017-11-16T07:54:48.941Z,62.47
2017-11-16T07:57:16.655Z,72.07
2017-11-16T07:59:44.170Z,68.65
2017-11-16T08:02:11.717Z,71.25
2017-11-16T08:04:39.250Z,70.20
2017-11-16T08:07:06.792Z,66.68
2017-11-16T08:09:34.331Z,69.62
2017-11-16T08:12:01.864Z,67.80
2017-11-16T08:14:29.403Z,64.20
2017-11-16T08:16:57.699Z,56.75
2017-11-16T08:19:25.220Z,61.50
2017-11-16T08:21:52.749Z,62.70
2017-11-16T08:24:20.263Z,65.30
2017-11-16T08:26:47.803Z,64.78
2017-11-16T08:29:15.341Z,67.90
2017-11-16T08:31:42.891Z,68.15
2017-11-16T08:34:10.508Z,67.28
2017-11-16T08:36:38.821Z,60.60
2017-11-16T08:39:06.352Z,68.93
2017-11-16T08:41:34.652Z,70.55
2017-11-16T08:44:02.189Z,77.72
2017-11-16T08:46:29.733Z,72.87
2017-11-16T08:48:58.032Z,81.37
2017-11-16T08:51:25.571Z,82.12
2017-11-16T08:53:53.914Z,83.50
2017-11-16T08:56:21.436Z,81.72
2017-11-16T08:58:48.988Z,88.43
2017-11-16T09:01:16.511Z,100.72
2017-11-16T09:03:44.263Z,104.43
2017-11-16T09:06:11.784Z,108.47
2017-11-16T09:08:39.346Z,92.03
2017-11-16T09:11:06.867Z,97.30
2017-11-16T09:13:35.225Z,100.50
2017-11-16T09:16:02.741Z,100.28
2017-11-16T09:18:30.259Z,106.68
2017-11-16T09:20:57.772Z,98.35
2017-11-16T09:23:25.324Z,105.03
2017-11-16T09:25:52.889Z,107.40
2017-11-16T09:28:20.421Z,108.10
2017-11-16T09:30:47.971Z,82.07
2017-11-16T09:33:16.280Z,94.25
2017-11-16T09:35:43.842Z,83.10
2017-11-16T09:38:11.378Z,81.90
2017-11-16T09:40:38.984Z,89.80
2017-11-16T09:43:06.513Z,79.43
2017-11-16T09:45:34.099Z,87.37
2017-11-16T09:48:01.626Z,80.60
2017-11-16T09:50:29.236Z,79.20
2017-11-16T09:52:56.759Z,78.53
2017-11-16T09:55:24.303Z,70.47
2017-11-16T09:57:51.860Z,67.45
2017-11-16T10:00:19.382Z,65.45
2017-11-16T10:02:46.919Z,66.30
2017-11-16T10:05:14.464Z,62.40
2017-11-16T10:07:41.999Z,66.45
2017-11-16T10:10:09.529Z,54.90
2017-11-16T10:12:37.064Z,70.62
2017-11-16T10:15:04.636Z,53.00
2017-11-16T10:17:32.172Z,65.93
2017-11-16T10:19:59.698Z,59.08
2017-11-16T10:22:27.234Z,76.70
2017-11-16T10:24:55.541Z,73.32
2017-11-16T10:27:23.082Z,68.18
2017-11-16T10:29:51.368Z,67.05
2017-11-16T10:32:19.689Z,59.33
2017-11-16T10:34:47.952Z,71.55
2017-11-16T10:37:15.473Z,81.30
2017-11-16T10:39:43.002Z,81.55
2017-11-16T10:42:10.559Z,72.32
2017-11-16T10:44:38.128Z,72.22
2017-11-16T10:47:05.680Z,72.10
2017-11-16T10:49:33.207Z,77.85
2017-11-16T10:52:00.731Z,69.65
2017-11-16T10:54:29.124Z,83.87
2017-11-16T10:56:57.474Z,85.32
2017-11-16T10:59:24.997Z,79.90
2017-11-16T11:01:52.558Z,80.97
2017-11-16T11:04:20.082Z,65.50
2017-11-16T11:06:48.479Z,54.17
2017-11-16T11:09:16.036Z,78.85
2017-11-16T11:11:43.574Z,79.30
2017-11-16T11:14:11.935Z,86.45
2017-11-16T11:16:40.258Z,85.45
2017-11-16T11:19:07.816Z,85.12
2017-11-16T11:21:35.344Z,83.32
2017-11-16T11:24:03.637Z,83.22
2017-11-16T11:26:31.177Z,83.50
2017-11-16T11:28:58.766Z,86.57
2017-11-16T11:31:26.300Z,76.97
2017-11-16T11:33:54.008Z,73.12
2017-11-16T11:36:21.567Z,61.75
2017-11-16T11:38:49.121Z,62.53
2017-11-16T11:41:16.668Z,73.90
2017-11-16T11:43:44.202Z,61.63
2017-11-16T11:46:12.484Z,62.88
2017-11-16T11:48:40.986Z,57.80
2017-11-16T11:51:08.506Z,74.30
2017-11-16T11:53:36.064Z,58.63
2017-11-16T11:56:03.585Z,54.08
2017-11-16T11:58:31.238Z,59.13
2017-11-16T12:00:58.759Z,52.45
2017-11-16T12:03:27.058Z,47.97
2017-11-16T12:23:10.405Z,33.95
2017-11-16T12:25:38.002Z,31.33
2017-11-16T12:28:05.519Z,43.00
2017-11-16T12:30:33.091Z,31.87
2017-11-16T12:33:00.617Z,36.42
2017-11-16T12:35:28.201Z,34.22
2017-11-16T12:37:56.483Z,41.13
2017-11-16T12:40:24.006Z,34.28
2017-11-16T12:42:51.613Z,39.50
2017-11-16T12:45:19.130Z,40.30
2017-11-16T12:47:46.680Z,34.88
2017-11-16T12:50:14.300Z,36.00
2017-11-16T12:52:41.807Z,29.83
2017-11-16T12:55:09.328Z,35.97
2017-11-16T12:57:36.898Z,35.35
2017-11-16T13:00:04.583Z,32.53
2017-11-16T13:02:32.146Z,33.53
2017-11-16T13:04:59.708Z,32.63
2017-11-16T13:07:27.250Z,33.40
2017-11-16T13:09:54.787Z,35.63
2017-11-16T13:12:22.356Z,39.42
2017-11-16T13:14:49.873Z,37.10
2017-11-16T13:17:17.529Z,33.33
2017-11-16T13:19:45.840Z,33.90
2017-11-16T13:22:13.345Z,32.08
2017-11-16T13:24:41.057Z,41.22
2017-11-16T13:27:08.644Z,31.67
2017-11-16T13:29:36.173Z,33.03
2017-11-16T13:32:03.688Z,31.42
2017-11-16T13:34:31.217Z,34.20
2017-11-16T13:36:58.738Z,31.40
2017-11-16T13:39:26.285Z,33.00
2017-11-16T13:41:53.842Z,41.20
2017-11-16T13:44:22.144Z,26.60
2017-11-16T13:46:49.668Z,30.80
2017-11-16T13:49:18.526Z,29.55
2017-11-16T13:51:46.053Z,35.03
2017-11-16T13:54:13.594Z,27.90
2017-11-16T13:56:41.909Z,30.40
2017-11-16T13:59:09.491Z,30.55
2017-11-16T14:01:37.060Z,23.38
2017-11-16T14:04:04.624Z,25.60
2017-11-16T14:06:32.164Z,27.42
2017-11-16T14:08:59.705Z,29.48
2017-11-16T14:11:27.224Z,33.60
2017-11-16T14:13:54.798Z,26.70
2017-11-16T14:16:22.334Z,32.58
2017-11-16T14:18:49.875Z,29.08
2017-11-16T14:21:17.387Z,31.55
2017-11-16T14:23:44.957Z,32.47
2017-11-16T14:26:12.508Z,32.25
2017-11-16T14:28:40.029Z,30.52
2017-11-16T14:31:07.547Z,31.05
2017-11-16T14:33:35.092Z,28.08
2017-11-16T14:36:02.705Z,25.43
2017-11-16T14:38:30.267Z,25.75
2017-11-16T14:40:57.789Z,27.27
2017-11-16T14:43:25.333Z,27.55
2017-11-16T14:45:52.892Z,29.05
2017-11-16T14:48:20.449Z,24.65
2017-11-16T14:50:47.962Z,27.00
2017-11-16T14:53:15.503Z,26.40
2017-11-16T14:55:43.062Z,27.62
2017-11-16T14:58:10.642Z,28.73
2017-11-16T15:00:38.963Z,28.23
2017-11-16T15:03:07.253Z,27.47
2017-11-16T15:05:34.805Z,28.12
2017-11-16T15:08:02.361Z,28.05
2017-11-16T15:10:29.925Z,27.62
2017-11-16T15:12:57.491Z,28.10
2017-11-16T15:15:25.096Z,27.05
2017-11-16T15:17:52.724Z,26.20
2017-11-16T15:20:20.316Z,24.60
2017-11-16T15:22:47.853Z,23.73
2017-11-16T15:25:15.398Z,25.73
2017-11-16T15:27:42.928Z,25.20
2017-11-16T15:30:11.213Z,25.45
2017-11-16T15:32:39.522Z,24.42
2017-11-16T15:35:07.162Z,25.67
2017-11-16T15:37:34.750Z,28.00
2017-11-16T15:40:02.321Z,27.33
2017-11-16T15:42:29.915Z,30.95
2017-11-16T15:44:58.441Z,28.17
2017-11-16T15:47:26.047Z,31.83
2017-11-16T15:49:53.640Z,30.50
2017-11-16T15:52:22.728Z,34.88
2017-11-16T15:54:51.041Z,33.60
2017-11-16T15:57:18.686Z,32.53
2017-11-16T15:59:46.210Z,32.35
2017-11-16T16:02:13.903Z,31.50
2017-11-16T16:04:41.483Z,32.53
2017-11-16T16:07:09.072Z,30.55
2017-11-16T22:11:45.430Z,36.88
2017-11-16T22:14:13.460Z,38.58
2017-11-16T22:16:41.792Z,40.05
2017-11-16T22:19:09.433Z,37.38
2017-11-16T22:21:37.007Z,39.42
2017-11-16T22:24:04.543Z,37.40
2017-11-16T22:26:32.829Z,33.92
2017-11-16T22:29:00.354Z,37.40
2017-11-16T22:31:28.662Z,37.58
2017-11-16T22:33:56.243Z,36.80
2017-11-16T22:36:23.775Z,36.40
2017-11-16T22:38:52.074Z,36.95
2017-11-16T22:41:21.185Z,41.75
2017-11-16T22:43:48.721Z,39.15
2017-11-16T22:46:16.237Z,36.42
2017-11-16T22:48:43.765Z,40.53
2017-11-16T22:51:11.294Z,42.65
2017-11-16T22:53:38.823Z,42.28
2017-11-16T22:56:06.356Z,42.33
2017-11-16T22:58:33.944Z,43.03
2017-11-16T23:01:02.250Z,42.40
2017-11-16T23:03:29.798Z,38.72
2017-11-16T23:05:58.063Z,41.05
2017-11-16T23:08:25.572Z,38.72
2017-11-16T23:10:53.081Z,42.25
2017-11-16T23:13:20.686Z,43.92
2017-11-16T23:15:48.275Z,46.65
2017-11-16T23:18:15.809Z,45.43
2017-11-16T23:20:43.427Z,39.85
2017-11-16T23:23:11.752Z,44.60
2017-11-16T23:25:39.690Z,43.53
2017-11-16T23:28:08.014Z,46.72
2017-11-16T23:30:36.217Z,41.25
2017-11-16T23:33:03.728Z,44.05
2017-11-16T23:35:31.235Z,48.20
2017-11-16T23:37:58.759Z,43.25
2017-11-16T23:40:26.284Z,46.53
2017-11-16T23:42:53.813Z,43.80
2017-11-16T23:45:21.381Z,51.17
2017-11-16T23:47:48.895Z,45.42
2017-11-16T23:50:16.424Z,42.53
2017-11-16T23:52:43.962Z,46.70
2017-11-16T23:55:12.336Z,45.90
2017-11-16T23:57:39.891Z,49.92
